Time;durP1;ratioP1;P1;durP2;ratioP2;P2;SDS_P1;SDS_P2;PMS_P1;PMS_P2;Temp;Humidity;BMP_temperature;BMP_pressure;BME280_temperature;BME280_humidity;BME280_pressure;Samples;Min_cycle;Max_cycle;Signal;HPM_P1;HPM_P2
2022/11/22 00:01:46;;;;;;;55.60;33.28;;;;;;;;;;5073246;28;20028;-72
2022/11/22 00:04:13;;;;;;;71.15;41.35;;;;;;;;;;5073020;28;20033;-73
2022/11/22 00:06:38;;;;;;;57.92;35.83;;;;;;;;;;5073019;28;20037;-72
2022/11/22 00:09:03;;;;;;;77.95;39.80;;;;;;;;;;5073412;28;20027;-72
2022/11/22 00:11:29;;;;;;;79.93;40.20;;;;;;;;;;5055387;28;20451;-73
2022/11/22 00:13:54;;;;;;;76.72;40.00;;;;;;;;;;5055439;28;20398;-73
2022/11/22 00:16:20;;;;;;;62.20;36.47;;;;;;;;;;5073299;28;20078;-72
2022/11/22 00:18:45;;;;;;;65.65;35.90;;;;;;;;;;5074222;28;20032;-73
2022/11/22 00:21:10;;;;;;;102.90;48.40;;;;;;;;;;5076535;28;20032;-72
2022/11/22 00:23:36;;;;;;;92.13;44.88;;;;;;;;;;5076749;28;20020;-73
2022/11/22 00:26:01;;;;;;;89.03;43.80;;;;;;;;;;5076654;28;20137;-75
2022/11/22 00:28:26;;;;;;;98.97;45.63;;;;;;;;;;5058858;28;20016;-75
2022/11/22 00:30:54;;;;;;;80.45;40.67;;;;;;;;;;5058433;28;20032;-75
2022/11/22 00:33:19;;;;;;;72.45;38.67;;;;;;;;;;5076139;28;20025;-73
2022/11/22 00:35:45;;;;;;;67.57;35.97;;;;;;;;;;5076500;28;20081;-73
2022/11/22 00:38:10;;;;;;;70.32;36.17;;;;;;;;;;5076403;28;20028;-74
2022/11/22 00:40:36;;;;;;;66.50;35.33;;;;;;;;;;5076430;28;20032;-74
2022/11/22 00:43:01;;;;;;;68.70;34.50;;;;;;;;;;5058670;28;20021;-73
2022/11/22 00:45:27;;;;;;;68.97;34.45;;;;;;;;;;5058509;28;20029;-74
2022/11/22 00:47:53;;;;;;;69.22;35.90;;;;;;;;;;5058389;28;20013;-74
2022/11/22 00:50:18;;;;;;;55.00;31.98;;;;;;;;;;5076088;28;20103;-73
2022/11/22 00:52:43;;;;;;;52.90;30.88;;;;;;;;;;5076128;28;20504;-72
2022/11/22 00:55:09;;;;;;;44.65;26.92;;;;;;;;;;5076128;28;20033;-74
2022/11/22 00:57:34;;;;;;;46.00;27.80;;;;;;;;;;5076078;28;20021;-74
2022/11/22 01:00:00;;;;;;;43.92;26.92;;;;;;;;;;5075888;28;20024;-74
2022/11/22 01:02:25;;;;;;;41.53;26.58;;;;;;;;;;5057722;28;20489;-75
2022/11/22 01:04:51;;;;;;;38.65;24.88;;;;;;;;;;5076051;28;20136;-73
2022/11/22 01:07:16;;;;;;;39.70;25.52;;;;;;;;;;5054439;28;20060;-74
2022/11/22 01:09:41;;;;;;;38.85;24.88;;;;;;;;;;5055783;28;20048;-72
2022/11/22 01:12:07;;;;;;;36.53;23.10;;;;;;;;;;5055639;28;20443;-74
2022/11/22 01:14:32;;;;;;;43.88;26.40;;;;;;;;;;5055729;28;20025;-73
2022/11/22 01:16:58;;;;;;;51.67;29.35;;;;;;;;;;5037800;28;20074;-73
2022/11/22 01:19:23;;;;;;;49.47;28.27;;;;;;;;;;5055643;28;20025;-74
2022/11/22 01:21:48;;;;;;;53.63;29.35;;;;;;;;;;5054231;28;20028;-73
2022/11/22 01:24:14;;;;;;;45.33;27.85;;;;;;;;;;5054017;28;20139;-73
2022/11/22 01:26:39;;;;;;;39.35;24.33;;;;;;;;;;5055711;28;20021;-73
2022/11/22 01:29:05;;;;;;;39.70;23.58;;;;;;;;;;5055000;28;20036;-73
2022/11/22 01:31:30;;;;;;;38.60;23.33;;;;;;;;;;5054453;28;20048;-73
2022/11/22 01:33:56;;;;;;;32.45;21.08;;;;;;;;;;5055289;28;20032;-73
2022/11/22 01:36:21;;;;;;;31.40;21.52;;;;;;;;;;5055404;28;20027;-73
2022/11/22 01:38:48;;;;;;;29.92;20.40;;;;;;;;;;5055305;28;20117;-74
2022/11/22 01:41:13;;;;;;;30.13;20.50;;;;;;;;;;5055070;28;20017;-73
2022/11/22 01:43:39;;;;;;;31.08;20.88;;;;;;;;;;5054996;28;20090;-73
2022/11/22 01:46:24;;;;;;;28.30;19.52;;;;;;;;;;5054941;28;20021;-73
2022/11/22 01:48:54;;;;;;;27.38;19.75;;;;;;;;;;5054503;28;20120;-73
2022/11/22 01:51:23;;;;;;;27.67;20.02;;;;;;;;;;5054847;28;20033;-73
2022/11/22 01:53:49;;;;;;;26.35;18.85;;;;;;;;;;5054961;28;20029;-74
2022/11/22 01:56:15;;;;;;;29.67;19.50;;;;;;;;;;5055149;28;20017;-73
2022/11/22 01:58:42;;;;;;;29.58;20.02;;;;;;;;;;5053941;28;20037;-73
2022/11/22 02:01:07;;;;;;;29.88;20.77;;;;;;;;;;5053892;28;20131;-73
2022/11/22 02:03:34;;;;;;;32.28;21.42;;;;;;;;;;5054721;28;20159;-74
2022/11/22 02:06:00;;;;;;;30.25;19.48;;;;;;;;;;5062697;28;20032;-74
2022/11/22 02:08:27;;;;;;;28.70;20.38;;;;;;;;;;5074656;28;20044;-73
2022/11/22 02:10:54;;;;;;;29.67;19.23;;;;;;;;;;5074688;28;20040;-73
2022/11/22 02:13:21;;;;;;;30.77;20.50;;;;;;;;;;5074264;28;20045;-72
2022/11/22 02:15:46;;;;;;;29.35;18.77;;;;;;;;;;5056538;28;20070;-73
2022/11/22 02:18:12;;;;;;;25.75;17.40;;;;;;;;;;5074271;28;20067;-73
2022/11/22 02:20:38;;;;;;;27.90;18.83;;;;;;;;;;5056401;28;20044;-73
2022/11/22 02:23:21;;;;;;;27.35;18.73;;;;;;;;;;5073970;28;20390;-73
2022/11/22 02:25:56;;;;;;;25.92;18.98;;;;;;;;;;5073775;28;20043;-72
2022/11/22 02:28:22;;;;;;;25.77;17.90;;;;;;;;;;5056501;28;20032;-73
2022/11/22 02:30:47;;;;;;;28.92;18.55;;;;;;;;;;5056570;28;20009;-72
2022/11/22 02:33:13;;;;;;;23.83;16.77;;;;;;;;;;5074434;28;20028;-73
2022/11/22 02:35:38;;;;;;;26.48;16.77;;;;;;;;;;5074408;28;20070;-72
2022/11/22 02:38:09;;;;;;;24.20;15.98;;;;;;;;;;5074262;28;20040;-73
2022/11/22 02:40:44;;;;;;;24.15;15.77;;;;;;;;;;5073652;28;20124;-73
2022/11/22 02:43:15;;;;;;;21.85;15.15;;;;;;;;;;5074128;28;20047;-74
2022/11/22 02:45:40;;;;;;;21.75;16.10;;;;;;;;;;5074229;28;20039;-75
2022/11/22 02:48:12;;;;;;;22.35;15.20;;;;;;;;;;5074051;28;20020;-73
2022/11/22 02:50:38;;;;;;;20.40;14.52;;;;;;;;;;5073932;28;20450;-73
2022/11/22 02:53:05;;;;;;;19.35;13.45;;;;;;;;;;5074029;28;20021;-74
2022/11/22 02:55:31;;;;;;;19.52;13.43;;;;;;;;;;5073911;28;20025;-74
2022/11/22 02:57:56;;;;;;;18.40;13.43;;;;;;;;;;5073944;28;20432;-70
2022/11/22 03:00:22;;;;;;;16.80;12.63;;;;;;;;;;5073812;28;20090;-70
2022/11/22 03:02:48;;;;;;;18.50;13.15;;;;;;;;;;5073436;28;20371;-69
2022/11/22 03:05:14;;;;;;;20.40;13.68;;;;;;;;;;5073419;28;20066;-70
2022/11/22 03:07:40;;;;;;;18.98;12.88;;;;;;;;;;5073994;28;20455;-70
2022/11/22 03:10:06;;;;;;;19.85;14.07;;;;;;;;;;5073590;28;20039;-69
2022/11/22 03:12:32;;;;;;;21.08;13.00;;;;;;;;;;5055699;28;20013;-69
2022/11/22 03:14:57;;;;;;;16.88;12.90;;;;;;;;;;5073695;28;20032;-70
2022/11/22 03:17:22;;;;;;;18.05;12.50;;;;;;;;;;5073824;28;20051;-69
2022/11/22 03:19:48;;;;;;;14.95;11.52;;;;;;;;;;5073596;28;20025;-69
2022/11/22 03:22:13;;;;;;;14.93;11.75;;;;;;;;;;5073638;28;20471;-69
2022/11/22 03:24:39;;;;;;;16.98;11.98;;;;;;;;;;5073636;28;20028;-69
2022/11/22 03:27:04;;;;;;;16.15;11.82;;;;;;;;;;5073552;28;20356;-69
2022/11/22 03:29:30;;;;;;;15.98;12.73;;;;;;;;;;5073427;28;20033;-69
2022/11/22 03:31:55;;;;;;;16.45;12.50;;;;;;;;;;5055570;28;20021;-68
2022/11/22 03:34:21;;;;;;;23.60;15.10;;;;;;;;;;5073419;28;20032;-68
2022/11/22 03:36:46;;;;;;;78.30;39.03;;;;;;;;;;5055542;28;20074;-69
2022/11/22 03:39:11;;;;;;;38.38;21.35;;;;;;;;;;5073293;28;20032;-68
2022/11/22 03:41:37;;;;;;;25.15;15.85;;;;;;;;;;5055613;28;20036;-69
2022/11/22 03:44:03;;;;;;;21.98;14.55;;;;;;;;;;5073096;28;20039;-69
2022/11/22 03:46:28;;;;;;;64.95;50.13;;;;;;;;;;5073231;28;20079;-73
2022/11/22 03:48:54;;;;;;;65.38;58.25;;;;;;;;;;5073376;28;20025;-74
2022/11/22 03:51:19;;;;;;;40.20;35.53;;;;;;;;;;5073433;28;20130;-74
2022/11/22 03:53:44;;;;;;;34.55;31.00;;;;;;;;;;5058769;28;20028;-73
2022/11/22 03:56:10;;;;;;;31.30;27.92;;;;;;;;;;5059367;28;20020;-73
2022/11/22 03:58:35;;;;;;;44.25;38.97;;;;;;;;;;5077332;28;20078;-73
2022/11/22 04:01:00;;;;;;;90.32;77.13;;;;;;;;;;5077344;28;20023;-74
2022/11/22 04:03:26;;;;;;;20.63;14.95;;;;;;;;;;5076950;28;20086;-73
2022/11/22 04:05:51;;;;;;;41.40;30.92;;;;;;;;;;5077121;28;20051;-73
2022/11/22 04:08:17;;;;;;;54.85;41.38;;;;;;;;;;5076888;28;20111;-69
2022/11/22 04:10:42;;;;;;;59.60;52.55;;;;;;;;;;5076871;28;20100;-68
2022/11/22 04:13:08;;;;;;;41.28;36.22;;;;;;;;;;5076970;28;20111;-69
2022/11/22 04:15:33;;;;;;;23.08;19.02;;;;;;;;;;5059198;28;20417;-69
2022/11/22 04:17:58;;;;;;;14.40;11.43;;;;;;;;;;5076460;28;20028;-69
2022/11/22 04:23:12;;;;;;;15.07;12.15;;;;;;;;;;5076581;28;20025;-69
2022/11/22 04:25:39;;;;;;;15.32;12.65;;;;;;;;;;5076699;28;20069;-69
2022/11/22 04:28:05;;;;;;;16.08;11.77;;;;;;;;;;5058382;28;20040;-69
2022/11/22 04:33:15;;;;;;;13.07;11.18;;;;;;;;;;5076470;28;20040;-69
2022/11/22 04:35:41;;;;;;;15.00;12.00;;;;;;;;;;5076349;28;20029;-69
2022/11/22 04:38:06;;;;;;;13.95;11.27;;;;;;;;;;5058407;28;20037;-68
2022/11/22 04:40:32;;;;;;;16.10;13.23;;;;;;;;;;5075991;28;20021;-71
2022/11/22 04:45:42;;;;;;;18.13;14.88;;;;;;;;;;5076301;28;20033;-71
2022/11/22 04:48:07;;;;;;;20.15;14.48;;;;;;;;;;5058049;28;20023;-70
2022/11/22 04:53:17;;;;;;;28.20;17.58;;;;;;;;;;5074446;28;20051;-70
2022/11/22 04:55:43;;;;;;;25.48;17.73;;;;;;;;;;5075242;28;20020;-70
2022/11/22 04:58:09;;;;;;;25.13;17.63;;;;;;;;;;5075257;28;20072;-69
2022/11/22 05:00:35;;;;;;;20.73;16.95;;;;;;;;;;5060086;28;20055;-69
2022/11/22 05:03:01;;;;;;;18.88;14.38;;;;;;;;;;5070921;28;20111;-70
2022/11/22 05:05:26;;;;;;;22.10;17.48;;;;;;;;;;5073444;28;20048;-69
2022/11/22 05:07:52;;;;;;;20.63;16.63;;;;;;;;;;5074449;28;20025;-70
2022/11/22 05:10:18;;;;;;;28.20;21.17;;;;;;;;;;5056542;28;20030;-69
2022/11/22 05:12:43;;;;;;;26.45;21.20;;;;;;;;;;5074653;28;20112;-70
2022/11/22 05:15:09;;;;;;;28.55;22.17;;;;;;;;;;5073858;28;20056;-70
2022/11/22 05:17:34;;;;;;;24.33;19.42;;;;;;;;;;5073846;28;20116;-70
2022/11/22 05:20:00;;;;;;;32.10;25.05;;;;;;;;;;5074521;28;20024;-71
2022/11/22 05:25:11;;;;;;;27.17;19.17;;;;;;;;;;5074824;28;20056;-71
2022/11/22 05:27:36;;;;;;;26.73;19.33;;;;;;;;;;5074849;28;20025;-70
2022/11/22 05:30:02;;;;;;;30.38;23.90;;;;;;;;;;5074746;28;20420;-69
2022/11/22 05:32:33;;;;;;;19.80;15.57;;;;;;;;;;5073343;28;20016;-68
2022/11/22 05:34:59;;;;;;;24.55;18.23;;;;;;;;;;5074534;28;20043;-68
2022/11/22 05:37:24;;;;;;;23.00;15.85;;;;;;;;;;5056733;28;20016;-70
2022/11/22 05:39:50;;;;;;;26.17;18.77;;;;;;;;;;5074547;28;20021;-70
2022/11/22 05:42:16;;;;;;;24.40;18.77;;;;;;;;;;5074355;28;20016;-70
2022/11/22 05:44:41;;;;;;;41.65;27.92;;;;;;;;;;5073897;28;20028;-70
2022/11/22 05:47:08;;;;;;;40.78;26.38;;;;;;;;;;5056018;28;20021;-70
2022/11/22 05:49:33;;;;;;;25.63;17.48;;;;;;;;;;5073840;28;20401;-70
2022/11/22 05:51:58;;;;;;;28.83;19.05;;;;;;;;;;5074157;28;20135;-70
2022/11/22 05:54:24;;;;;;;22.67;16.65;;;;;;;;;;5074272;28;20032;-70
2022/11/22 05:56:49;;;;;;;18.50;14.05;;;;;;;;;;5039304;28;20087;-70
2022/11/22 05:59:15;;;;;;;66.85;40.50;;;;;;;;;;5073433;28;20107;-71
2022/11/22 06:01:40;;;;;;;47.08;29.17;;;;;;;;;;5072167;28;20021;-70
2022/11/22 06:04:06;;;;;;;24.40;19.58;;;;;;;;;;5072264;28;20119;-70
2022/11/22 06:06:31;;;;;;;20.63;15.15;;;;;;;;;;5073140;28;20040;-71
2022/11/22 06:08:57;;;;;;;20.88;14.23;;;;;;;;;;5055487;28;20032;-71
2022/11/22 06:11:24;;;;;;;22.83;16.77;;;;;;;;;;5073269;28;20052;-71
2022/11/22 06:13:50;;;;;;;19.73;15.25;;;;;;;;;;5073789;28;20036;-71
2022/11/22 06:16:16;;;;;;;25.63;19.00;;;;;;;;;;5073771;28;20032;-71
2022/11/22 06:18:42;;;;;;;22.17;14.32;;;;;;;;;;5073913;28;20086;-72
2022/11/22 06:21:10;;;;;;;17.10;13.25;;;;;;;;;;5073769;28;20025;-72
2022/11/22 06:23:35;;;;;;;14.80;12.88;;;;;;;;;;5073666;28;20043;-72
2022/11/22 06:26:03;;;;;;;17.48;13.88;;;;;;;;;;5055715;28;20016;-72
2022/11/22 06:28:29;;;;;;;20.17;15.40;;;;;;;;;;5073432;28;20036;-74
2022/11/22 06:30:59;;;;;;;17.65;13.88;;;;;;;;;;5055723;28;20013;-72
2022/11/22 06:33:24;;;;;;;;;;;;;;;;;;5073843;28;20043;-72
2022/11/22 06:35:50;;;;;;;18.48;13.48;;;;;;;;;;5039043;28;19905;-72
2022/11/22 06:38:15;;;;;;;21.25;14.43;;;;;;;;;;5073356;28;20079;-72
2022/11/22 06:40:41;;;;;;;18.42;13.57;;;;;;;;;;5073641;28;20518;-72
2022/11/22 06:43:06;;;;;;;15.15;11.65;;;;;;;;;;5073286;28;20039;-72
2022/11/22 06:45:33;;;;;;;17.48;13.15;;;;;;;;;;5073397;28;20066;-72
2022/11/22 06:47:58;;;;;;;28.55;17.20;;;;;;;;;;5072649;28;20432;-72
2022/11/22 06:50:24;;;;;;;21.20;14.30;;;;;;;;;;5071972;28;20033;-72
2022/11/22 06:52:50;;;;;;;22.50;17.05;;;;;;;;;;5072828;28;20028;-72
2022/11/22 06:55:15;;;;;;;19.50;13.68;;;;;;;;;;5072944;28;20020;-72
2022/11/22 06:57:41;;;;;;;22.20;15.18;;;;;;;;;;5072712;28;20489;-72
2022/11/22 07:00:07;;;;;;;24.90;17.08;;;;;;;;;;5054528;28;20029;-72
2022/11/22 07:02:32;;;;;;;21.98;15.95;;;;;;;;;;5071162;28;20071;-72
2022/11/22 07:04:58;;;;;;;20.45;14.13;;;;;;;;;;5070339;28;20044;-71
2022/11/22 07:07:23;;;;;;;19.00;12.98;;;;;;;;;;5070391;28;20040;-72
2022/11/22 07:09:49;;;;;;;20.65;13.82;;;;;;;;;;5071095;28;20052;-71
2022/11/22 07:12:14;;;;;;;34.10;22.83;;;;;;;;;;5070606;28;20115;-73
2022/11/22 07:14:41;;;;;;;26.95;17.48;;;;;;;;;;5071072;28;20024;-71
2022/11/22 07:17:07;;;;;;;20.17;14.15;;;;;;;;;;5070359;28;20394;-73
2022/11/22 07:19:32;;;;;;;21.70;13.23;;;;;;;;;;5071271;28;20021;-73
2022/11/22 07:21:57;;;;;;;17.88;12.73;;;;;;;;;;5054319;28;20369;-72
2022/11/22 07:24:23;;;;;;;18.30;12.18;;;;;;;;;;5072226;28;20020;-72
2022/11/22 07:26:48;;;;;;;19.92;12.27;;;;;;;;;;5072293;28;20028;-72
2022/11/22 07:29:13;;;;;;;17.40;12.73;;;;;;;;;;5041202;28;20015;-72
2022/11/22 07:31:39;;;;;;;18.80;13.23;;;;;;;;;;5076301;28;20112;-72
2022/11/22 07:34:04;;;;;;;18.58;12.52;;;;;;;;;;5058392;28;20027;-72
2022/11/22 07:36:29;;;;;;;20.83;13.20;;;;;;;;;;5076518;28;20021;-72
2022/11/22 07:38:55;;;;;;;25.38;15.55;;;;;;;;;;5076244;28;20517;-73
2022/11/22 07:41:21;;;;;;;40.00;18.63;;;;;;;;;;5075787;28;20032;-71
2022/11/22 07:43:46;;;;;;;20.13;11.93;;;;;;;;;;5057956;28;20029;-72
2022/11/22 07:46:18;;;;;;;26.65;14.95;;;;;;;;;;5075867;28;20521;-72
2022/11/22 07:48:43;;;;;;;14.35;10.75;;;;;;;;;;5075739;28;20025;-72
2022/11/22 07:51:09;;;;;;;15.88;10.57;;;;;;;;;;5075924;28;20386;-73
2022/11/22 07:53:34;;;;;;;11.35;7.30;;;;;;;;;;5075747;28;20033;-73
2022/11/22 07:56:01;;;;;;;9.07;7.43;;;;;;;;;;5075480;28;20016;-75
2022/11/22 07:58:26;;;;;;;12.13;9.38;;;;;;;;;;5075874;28;20032;-72
2022/11/22 08:00:51;;;;;;;12.02;9.93;;;;;;;;;;5057889;28;20096;-74
2022/11/22 08:03:18;;;;;;;10.70;7.88;;;;;;;;;;5075459;28;20032;-73
2022/11/22 08:05:44;;;;;;;13.02;10.10;;;;;;;;;;5075821;28;20071;-72
2022/11/22 08:08:10;;;;;;;11.13;8.48;;;;;;;;;;5076010;28;20028;-72
2022/11/22 08:10:35;;;;;;;10.25;7.82;;;;;;;;;;5075637;28;20064;-74
2022/11/22 08:13:01;;;;;;;11.10;7.88;;;;;;;;;;5057562;28;20066;-74
2022/11/22 08:15:26;;;;;;;9.00;6.72;;;;;;;;;;5075920;28;20046;-74
2022/11/22 08:17:51;;;;;;;14.68;10.10;;;;;;;;;;5075918;28;20039;-74
2022/11/22 08:20:17;;;;;;;14.25;10.65;;;;;;;;;;5075369;28;20379;-73
2022/11/22 08:22:42;;;;;;;11.80;8.88;;;;;;;;;;5074687;28;20113;-74
2022/11/22 08:25:11;;;;;;;11.23;7.78;;;;;;;;;;5040500;28;20028;-73
2022/11/22 08:27:41;;;;;;;11.13;7.63;;;;;;;;;;5075036;28;20035;-74
2022/11/22 08:30:06;;;;;;;9.82;8.18;;;;;;;;;;5075219;28;20021;-73
2022/11/22 08:32:32;;;;;;;12.52;9.18;;;;;;;;;;5074931;28;20050;-73
2022/11/22 08:34:57;;;;;;;7.55;6.35;;;;;;;;;;5074884;28;20033;-74
2022/11/22 08:37:23;;;;;;;8.32;5.65;;;;;;;;;;5057342;28;20040;-73
2022/11/22 08:39:48;;;;;;;10.48;7.78;;;;;;;;;;5073853;28;20055;-73
2022/11/22 08:42:13;;;;;;;9.15;6.65;;;;;;;;;;5074790;28;20364;-73
2022/11/22 08:44:38;;;;;;;11.05;8.55;;;;;;;;;;5074960;28;20060;-73
2022/11/22 08:47:04;;;;;;;11.70;9.57;;;;;;;;;;5074821;28;20047;-73
2022/11/22 08:49:29;;;;;;;10.25;8.32;;;;;;;;;;5074759;28;20012;-72
2022/11/22 08:51:55;;;;;;;12.40;8.77;;;;;;;;;;5074581;28;20075;-73
2022/11/22 08:54:20;;;;;;;12.55;9.13;;;;;;;;;;5074540;28;20589;-75
2022/11/22 08:56:46;;;;;;;11.13;8.82;;;;;;;;;;5074437;28;20037;-74
2022/11/22 08:59:11;;;;;;;8.48;7.00;;;;;;;;;;5074576;28;20024;-73
2022/11/22 09:01:37;;;;;;;8.23;6.55;;;;;;;;;;5074226;28;20024;-73
2022/11/22 09:04:02;;;;;;;11.57;8.18;;;;;;;;;;5074228;28;20108;-73
2022/11/22 09:06:27;;;;;;;11.25;8.18;;;;;;;;;;5056409;28;20107;-71
2022/11/22 09:08:53;;;;;;;15.57;10.45;;;;;;;;;;5073471;28;20704;-73
2022/11/22 09:11:19;;;;;;;16.65;12.02;;;;;;;;;;5074434;28;20036;-73
2022/11/22 09:13:44;;;;;;;13.70;8.98;;;;;;;;;;5074154;28;20024;-72
2022/11/22 09:16:18;;;;;;;9.75;6.97;;;;;;;;;;5074420;28;20372;-73
2022/11/22 09:18:44;;;;;;;8.85;7.30;;;;;;;;;;5073846;28;20028;-73
2022/11/22 09:21:14;;;;;;;14.70;10.55;;;;;;;;;;5056317;28;20378;-73
2022/11/22 09:23:40;;;;;;;10.30;8.77;;;;;;;;;;5055836;28;20032;-73
2022/11/22 09:26:07;;;;;;;10.27;6.30;;;;;;;;;;5074233;28;20039;-74
2022/11/22 09:28:33;;;;;;;10.57;8.80;;;;;;;;;;5073900;28;20025;-73
2022/11/22 09:31:08;;;;;;;15.13;9.88;;;;;;;;;;5073509;28;20074;-71
2022/11/22 09:33:35;;;;;;;11.55;9.23;;;;;;;;;;5056126;28;20063;-72
2022/11/22 09:36:08;;;;;;;26.95;13.95;;;;;;;;;;5073503;28;20031;-72
2022/11/22 09:38:34;;;;;;;22.80;13.50;;;;;;;;;;5073848;28;20047;-71
2022/11/22 09:41:02;;;;;;;17.92;12.55;;;;;;;;;;5073567;28;20028;-72
2022/11/22 09:43:42;;;;;;;14.65;9.07;;;;;;;;;;5073716;28;20028;-72
2022/11/22 09:46:11;;;;;;;13.68;10.20;;;;;;;;;;5055964;28;20119;-72
2022/11/22 09:48:43;;;;;;;10.27;8.40;;;;;;;;;;5073285;28;20020;-72
2022/11/22 09:51:11;;;;;;;11.30;8.90;;;;;;;;;;5055478;28;20104;-72
2022/11/22 09:53:39;;;;;;;19.17;12.20;;;;;;;;;;5073628;28;20016;-72
2022/11/22 09:56:08;;;;;;;13.00;9.02;;;;;;;;;;5055639;28;20059;-72
2022/11/22 09:58:50;;;;;;;10.68;8.43;;;;;;;;;;5072760;28;20103;-72
2022/11/22 10:01:15;;;;;;;9.43;7.32;;;;;;;;;;5073089;28;20025;-72
2022/11/22 10:03:50;;;;;;;10.63;7.90;;;;;;;;;;5073494;28;20031;-74
2022/11/22 10:06:18;;;;;;;11.75;8.95;;;;;;;;;;5054778;28;20040;-72
2022/11/22 10:08:46;;;;;;;14.02;8.68;;;;;;;;;;5073054;28;20482;-73
2022/11/22 10:11:17;;;;;;;11.15;7.90;;;;;;;;;;5073253;28;20024;-72
2022/11/22 10:13:46;;;;;;;15.07;9.55;;;;;;;;;;5072778;28;20036;-71
2022/11/22 10:16:13;;;;;;;9.32;8.27;;;;;;;;;;5038790;28;20382;-73
2022/11/22 10:18:38;;;;;;;9.70;7.43;;;;;;;;;;5038461;28;20111;-72
2022/11/22 10:21:04;;;;;;;10.15;7.78;;;;;;;;;;5073347;28;20540;-72
2022/11/22 10:23:31;;;;;;;17.58;12.15;;;;;;;;;;5054734;28;20025;-72
2022/11/22 10:25:58;;;;;;;15.77;10.10;;;;;;;;;;5072732;28;20086;-71
2022/11/22 10:28:23;;;;;;;12.20;8.98;;;;;;;;;;5055188;28;20268;-73
2022/11/22 10:31:09;;;;;;;13.00;10.30;;;;;;;;;;5054762;28;20016;-72
2022/11/22 10:33:38;;;;;;;19.95;13.60;;;;;;;;;;5071886;28;20274;-72
2022/11/22 10:36:07;;;;;;;13.50;8.68;;;;;;;;;;5072106;28;20470;-71
2022/11/22 10:38:42;;;;;;;7.13;6.43;;;;;;;;;;5055177;28;20402;-71
2022/11/22 10:41:27;;;;;;;6.35;5.75;;;;;;;;;;5072640;28;20082;-73
2022/11/22 10:43:55;;;;;;;11.00;8.93;;;;;;;;;;5072581;28;20039;-73
2022/11/22 10:46:39;;;;;;;23.75;18.08;;;;;;;;;;5072915;28;20016;-73
2022/11/22 10:49:24;;;;;;;7.72;6.85;;;;;;;;;;5038159;28;20536;-72
2022/11/22 10:52:15;;;;;;;7.07;6.38;;;;;;;;;;5054995;28;20025;-72
2022/11/22 10:54:41;;;;;;;5.07;4.57;;;;;;;;;;5067890;28;20437;-73
2022/11/22 10:57:13;;;;;;;4.80;4.32;;;;;;;;;;5073244;28;20028;-73
2022/11/22 10:59:39;;;;;;;5.95;4.65;;;;;;;;;;5072680;28;20086;-70
2022/11/22 11:02:22;;;;;;;6.85;4.55;;;;;;;;;;5071888;28;20422;-74
2022/11/22 11:04:49;;;;;;;6.32;4.60;;;;;;;;;;5072764;28;20055;-72
2022/11/22 11:07:16;;;;;;;6.40;4.75;;;;;;;;;;5053988;28;20110;-72
2022/11/22 11:09:46;;;;;;;7.65;5.78;;;;;;;;;;5072178;28;20031;-73
2022/11/22 11:12:22;;;;;;;9.50;6.07;;;;;;;;;;5071966;28;20020;-72
2022/11/22 11:14:50;;;;;;;8.65;5.50;;;;;;;;;;5072436;28;20094;-71
2022/11/22 11:17:17;;;;;;;9.02;6.35;;;;;;;;;;5072042;28;20101;-73
2022/11/22 11:19:45;;;;;;;9.00;6.13;;;;;;;;;;5072239;28;20460;-74
2022/11/22 11:22:15;;;;;;;7.82;5.97;;;;;;;;;;5054401;28;20024;-72
2022/11/22 11:24:40;;;;;;;8.25;5.75;;;;;;;;;;5054424;28;20149;-73
2022/11/22 11:27:06;;;;;;;10.15;6.65;;;;;;;;;;5072170;28;20076;-73
2022/11/22 11:29:58;;;;;;;8.35;5.95;;;;;;;;;;5072244;28;20063;-73
2022/11/22 11:32:23;;;;;;;7.38;6.57;;;;;;;;;;5053942;28;20443;-72
2022/11/22 11:34:56;;;;;;;3.92;3.55;;;;;;;;;;5054362;28;20063;-71
2022/11/22 11:37:30;;;;;;;7.63;4.55;;;;;;;;;;5071936;28;20067;-72
2022/11/22 11:39:55;;;;;;;8.35;6.07;;;;;;;;;;5071943;28;20028;-72
2022/11/22 11:42:22;;;;;;;10.05;7.72;;;;;;;;;;5071797;28;20031;-71
2022/11/22 11:44:48;;;;;;;9.68;6.78;;;;;;;;;;5071748;28;20040;-72
2022/11/22 11:47:17;;;;;;;7.43;5.85;;;;;;;;;;5072210;28;20020;-71
2022/11/22 11:49:48;;;;;;;4.82;3.83;;;;;;;;;;5053961;28;20029;-74
2022/11/22 11:52:24;;;;;;;6.85;5.55;;;;;;;;;;5071766;28;20021;-72
2022/11/22 11:54:53;;;;;;;11.85;7.10;;;;;;;;;;5071431;28;20032;-74
2022/11/22 11:57:22;;;;;;;10.52;7.05;;;;;;;;;;5072062;28;20488;-73
2022/11/22 11:59:49;;;;;;;7.05;4.55;;;;;;;;;;5071922;28;20039;-73
2022/11/22 12:02:18;;;;;;;4.75;3.60;;;;;;;;;;5071760;28;20478;-72
2022/11/22 12:04:57;;;;;;;6.70;5.10;;;;;;;;;;5071848;28;20033;-73
2022/11/22 12:07:23;;;;;;;10.38;6.05;;;;;;;;;;5053721;28;20040;-72
2022/11/22 12:09:49;;;;;;;8.60;5.28;;;;;;;;;;5053714;28;20021;-72
2022/11/22 12:12:33;;;;;;;8.88;5.43;;;;;;;;;;5071817;28;20482;-73
2022/11/22 12:15:03;;;;;;;12.55;9.25;;;;;;;;;;5057025;28;20035;-71
2022/11/22 12:17:29;;;;;;;8.75;7.65;;;;;;;;;;5057842;28;20051;-74
2022/11/22 12:19:55;;;;;;;22.63;14.48;;;;;;;;;;5075394;28;20040;-72
2022/11/22 12:22:31;;;;;;;18.80;14.82;;;;;;;;;;5057505;28;20036;-72
2022/11/22 12:24:59;;;;;;;15.23;11.07;;;;;;;;;;5057241;28;20082;-71
2022/11/22 12:27:25;;;;;;;37.08;24.70;;;;;;;;;;5075300;28;20012;-73
2022/11/22 12:29:51;;;;;;;13.02;8.80;;;;;;;;;;5074875;28;20078;-74
2022/11/22 12:32:23;;;;;;;17.55;10.57;;;;;;;;;;5075347;28;20047;-72
2022/11/22 12:34:54;;;;;;;53.97;28.60;;;;;;;;;;5057567;28;20066;-74
2022/11/22 12:37:23;;;;;;;11.13;7.72;;;;;;;;;;5075113;28;20036;-72
2022/11/22 12:39:50;;;;;;;13.88;9.02;;;;;;;;;;5074935;28;20024;-72
2022/11/22 12:42:25;;;;;;;12.48;8.15;;;;;;;;;;5075153;28;20036;-73
2022/11/22 12:44:53;;;;;;;14.18;9.50;;;;;;;;;;5074097;28;20034;-72
2022/11/22 12:47:21;;;;;;;32.88;25.77;;;;;;;;;;5074278;28;20422;-72
2022/11/22 12:50:01;;;;;;;20.80;16.88;;;;;;;;;;5056633;28;20497;-72
2022/11/22 12:52:31;;;;;;;15.18;10.73;;;;;;;;;;5056957;28;20082;-72
2022/11/22 12:55:03;;;;;;;17.50;14.60;;;;;;;;;;5057080;28;20086;-72
2022/11/22 12:57:42;;;;;;;16.25;11.45;;;;;;;;;;5074214;28;20040;-72
2022/11/22 13:00:18;;;;;;;13.00;10.00;;;;;;;;;;5075182;28;20047;-72
2022/11/22 13:03:02;;;;;;;12.90;9.57;;;;;;;;;;5056344;28;20533;-72
2022/11/22 13:05:35;;;;;;;17.65;11.98;;;;;;;;;;5056453;28;20060;-72
2022/11/22 13:08:04;;;;;;;14.35;11.07;;;;;;;;;;5056749;28;20111;-71
2022/11/22 13:10:48;;;;;;;16.95;12.38;;;;;;;;;;5074271;28;20048;-72
2022/11/22 13:13:24;;;;;;;23.00;14.48;;;;;;;;;;5074483;28;20032;-71
2022/11/22 13:15:54;;;;;;;22.73;16.80;;;;;;;;;;5074362;28;20020;-72
2022/11/22 13:18:22;;;;;;;22.42;17.67;;;;;;;;;;5074411;28;20012;-72
2022/11/22 13:20:53;;;;;;;25.35;17.65;;;;;;;;;;5056538;28;20377;-72
2022/11/22 13:23:50;;;;;;;25.55;17.35;;;;;;;;;;5056802;28;20444;-72
2022/11/22 13:26:35;;;;;;;18.77;14.23;;;;;;;;;;5053363;28;20033;-72
2022/11/22 13:29:06;;;;;;;69.88;42.83;;;;;;;;;;5073936;28;20402;-73
2022/11/22 13:31:33;;;;;;;125.95;69.70;;;;;;;;;;5074201;28;20024;-73
2022/11/22 13:34:01;;;;;;;45.15;26.40;;;;;;;;;;5074191;28;20056;-71
2022/11/22 13:36:26;;;;;;;260.98;118.00;;;;;;;;;;5074805;28;20062;-72
2022/11/22 13:38:53;;;;;;;345.90;172.07;;;;;;;;;;5074439;28;20025;-72
2022/11/22 13:41:26;;;;;;;328.63;140.27;;;;;;;;;;5055478;28;20024;-72
2022/11/22 13:43:55;;;;;;;229.43;111.07;;;;;;;;;;5073522;28;20363;-72
2022/11/22 13:46:39;;;;;;;155.63;71.20;;;;;;;;;;5056011;28;20074;-72
2022/11/22 13:49:25;;;;;;;69.07;39.13;;;;;;;;;;5073808;28;20027;-72
2022/11/22 13:51:52;;;;;;;229.38;102.53;;;;;;;;;;5073652;28;20030;-72
2022/11/22 13:54:32;;;;;;;96.18;55.17;;;;;;;;;;5073561;28;20030;-72
2022/11/22 13:56:59;;;;;;;34.17;21.10;;;;;;;;;;5073876;28;20021;-72
2022/11/22 13:59:26;;;;;;;59.50;35.00;;;;;;;;;;5073515;28;20485;-72
2022/11/22 14:01:56;;;;;;;50.15;28.83;;;;;;;;;;5055671;28;20112;-72
2022/11/22 14:04:26;;;;;;;36.92;22.95;;;;;;;;;;5073398;28;20044;-72
2022/11/22 14:06:52;;;;;;;;;;;;;;;;;;5073158;28;20123;-73
2022/11/22 14:09:36;;;;;;;37.50;22.83;;;;;;;;;;5055373;28;19942;-73
2022/11/22 14:12:07;;;;;;;34.40;21.23;;;;;;;;;;5055236;28;20035;-73
2022/11/22 14:14:38;;;;;;;44.35;28.60;;;;;;;;;;5072739;28;20511;-74
2022/11/22 14:17:11;;;;;;;44.10;28.58;;;;;;;;;;5055258;28;20272;-73
2022/11/22 14:19:55;;;;;;;127.80;92.57;;;;;;;;;;5055288;28;20116;-73
2022/11/22 14:22:39;;;;;;;93.35;69.43;;;;;;;;;;5073108;28;20024;-73
2022/11/22 14:25:20;;;;;;;57.35;43.38;;;;;;;;;;5073102;28;20047;-73
2022/11/22 14:27:52;;;;;;;40.65;25.85;;;;;;;;;;5073406;28;20021;-72
2022/11/22 14:30:21;;;;;;;38.55;25.27;;;;;;;;;;5038471;28;20081;-72
2022/11/22 14:32:49;;;;;;;68.90;40.65;;;;;;;;;;5072638;28;20028;-73
2022/11/22 14:35:22;;;;;;;365.77;183.02;;;;;;;;;;5072314;28;20021;-74
2022/11/22 14:37:57;;;;;;;239.23;111.63;;;;;;;;;;5071744;28;20064;-72
2022/11/22 14:40:31;;;;;;;239.82;151.32;;;;;;;;;;5055772;28;20035;-74